Portada
METAR-TAF:

METAR-TAF

Aeropuertos :

Caracas, Venezuela

Aeropuerto Internacional de Maiquetía Simón Bolívar

latitud: 10-36N, longitud: 066-59W, altitud: 43 m

Observación

El informe se hizo hace 40 minutos, a las 15:00 UTC
Viento 3 kt del este
Temperatura 29°C
Humedad 70%
Presión 1009 hPa
Visibilidad 10 km o más
Nubes dispersas a una altura de 1600 ft

METAR: SVMI 211500Z 09003KT 9999 SCT016 29/23 Q1009

Hora: 11:40 (15:40 UTC)

Pronóstico

El informe se hizo hace 5 horas y 40 minutos, a las 10:00 UTC
Pronóstico válido del 21 a las 12 UTC al 22 a las 12 UTC
Viento 8 kt del este
Visibilidad 10 km o más
Nubes dispersas a una altura de 1600 ft
Evolucionando progresivamente
del 21 a las 14 UTC al 21 a las 18 UTC
Viento 10 kt del este-noreste
Escasas nubes a una altura de 1600 ft
Nubes dispersas a una altura de 9000 ft

TAF: SVMI 211000Z 2112/2212 09008KT 9999 SCT016 TX31/18Z TN23/09Z BECMG 2114/2118 07010KT FEW016 SCT090

Observaciones y pronósticos meteorológicos de más de 4000 aeropuertos (mensajes METAR y TAF).

Los puntos amarillos y rojos representan las estaciones disponibles.

Ponga el ratón en el punto deseado para ver el nombre de la estación.

Haga clic para ver las observaciones y los pronósticos meteorológicos.

Para cambiar el mapa : haga clic en los botones verdes con una cruz de color negro para hacer un zoom, en el botón verde con un guión para alejar o en las flechas verdes para mapas adyacentes.


METAR-TAF: